sensor_id;sensor_type;location;lat;lon;timestamp;temperature;humidity
14119;DHT22;7138;49.246;9.100;2024-03-22T00:01:54;6.80;99.90
14119;DHT22;7138;49.246;9.100;2024-03-22T00:04:22;6.80;99.90
14119;DHT22;7138;49.246;9.100;2024-03-22T00:06:49;6.90;99.90
14119;DHT22;7138;49.246;9.100;2024-03-22T00:09:15;6.90;99.90
14119;DHT22;7138;49.246;9.100;2024-03-22T00:11:42;6.90;99.90
14119;DHT22;7138;49.246;9.100;2024-03-22T00:14:09;6.90;99.90
14119;DHT22;7138;49.246;9.100;2024-03-22T00:16:36;6.80;99.90
14119;DHT22;7138;49.246;9.100;2024-03-22T00:19:03;6.60;99.90
14119;DHT22;7138;49.246;9.100;2024-03-22T00:21:31;6.60;99.90
14119;DHT22;7138;49.246;9.100;2024-03-22T00:23:57;6.60;99.90
14119;DHT22;7138;49.246;9.100;2024-03-22T00:26:23;6.60;99.90
14119;DHT22;7138;49.246;9.100;2024-03-22T00:28:49;6.70;99.90
14119;DHT22;7138;49.246;9.100;2024-03-22T00:31:16;6.60;99.90
14119;DHT22;7138;49.246;9.100;2024-03-22T00:33:42;6.50;99.90
14119;DHT22;7138;49.246;9.100;2024-03-22T00:36:08;6.50;99.90
14119;DHT22;7138;49.246;9.100;2024-03-22T00:38:36;6.50;99.90
14119;DHT22;7138;49.246;9.100;2024-03-22T00:41:02;6.40;99.90
14119;DHT22;7138;49.246;9.100;2024-03-22T00:43:28;6.40;99.90
14119;DHT22;7138;49.246;9.100;2024-03-22T00:45:54;6.40;99.90
14119;DHT22;7138;49.246;9.100;2024-03-22T00:48:20;6.40;99.90
14119;DHT22;7138;49.246;9.100;2024-03-22T00:50:45;6.50;99.90
14119;DHT22;7138;49.246;9.100;2024-03-22T00:53:11;6.50;99.90
14119;DHT22;7138;49.246;9.100;2024-03-22T00:55:39;6.40;99.90
14119;DHT22;7138;49.246;9.100;2024-03-22T00:58:05;6.40;99.90
14119;DHT22;7138;49.246;9.100;2024-03-22T01:00:31;6.30;99.90
14119;DHT22;7138;49.246;9.100;2024-03-22T01:02:57;6.20;99.90
14119;DHT22;7138;49.246;9.100;2024-03-22T01:05:22;6.10;99.90
14119;DHT22;7138;49.246;9.100;2024-03-22T01:07:48;6.20;99.90
14119;DHT22;7138;49.246;9.100;2024-03-22T01:10:14;6.30;99.90
14119;DHT22;7138;49.246;9.100;2024-03-22T01:12:41;6.20;99.90
14119;DHT22;7138;49.246;9.100;2024-03-22T01:15:08;6.10;99.90
14119;DHT22;7138;49.246;9.100;2024-03-22T01:17:34;6.10;99.90
14119;DHT22;7138;49.246;9.100;2024-03-22T01:20:01;6.10;99.90
14119;DHT22;7138;49.246;9.100;2024-03-22T01:22:27;6.10;99.90
14119;DHT22;7138;49.246;9.100;2024-03-22T01:24:52;6.00;99.90
14119;DHT22;7138;49.246;9.100;2024-03-22T01:27:19;5.90;99.90
14119;DHT22;7138;49.246;9.100;2024-03-22T01:29:46;5.90;99.90
14119;DHT22;7138;49.246;9.100;2024-03-22T01:32:12;5.90;99.90
14119;DHT22;7138;49.246;9.100;2024-03-22T01:34:38;5.90;99.90
14119;DHT22;7138;49.246;9.100;2024-03-22T01:37:04;5.80;99.90
14119;DHT22;7138;49.246;9.100;2024-03-22T01:39:30;5.80;99.90
14119;DHT22;7138;49.246;9.100;2024-03-22T01:41:56;6.00;99.90
14119;DHT22;7138;49.246;9.100;2024-03-22T01:44:27;5.90;99.90
14119;DHT22;7138;49.246;9.100;2024-03-22T01:46:55;5.80;99.90
14119;DHT22;7138;49.246;9.100;2024-03-22T01:49:22;5.80;99.90
14119;DHT22;7138;49.246;9.100;2024-03-22T01:51:50;5.80;99.90
14119;DHT22;7138;49.246;9.100;2024-03-22T01:54:16;5.80;99.90
14119;DHT22;7138;49.246;9.100;2024-03-22T01:56:43;5.80;99.90
14119;DHT22;7138;49.246;9.100;2024-03-22T01:59:09;5.70;99.90
14119;DHT22;7138;49.246;9.100;2024-03-22T02:01:35;5.70;99.90
14119;DHT22;7138;49.246;9.100;2024-03-22T02:04:03;5.70;99.90
14119;DHT22;7138;49.246;9.100;2024-03-22T02:06:29;5.70;99.90
14119;DHT22;7138;49.246;9.100;2024-03-22T02:08:55;5.50;99.90
14119;DHT22;7138;49.246;9.100;2024-03-22T02:11:22;5.40;99.90
14119;DHT22;7138;49.246;9.100;2024-03-22T02:13:48;5.30;99.90
14119;DHT22;7138;49.246;9.100;2024-03-22T02:16:14;5.20;99.90
14119;DHT22;7138;49.246;9.100;2024-03-22T02:18:40;5.20;99.90
14119;DHT22;7138;49.246;9.100;2024-03-22T02:21:07;5.20;99.90
14119;DHT22;7138;49.246;9.100;2024-03-22T02:23:35;5.20;99.90
14119;DHT22;7138;49.246;9.100;2024-03-22T02:26:02;5.20;99.90
14119;DHT22;7138;49.246;9.100;2024-03-22T02:28:31;5.20;99.90
14119;DHT22;7138;49.246;9.100;2024-03-22T02:30:57;5.20;99.90
14119;DHT22;7138;49.246;9.100;2024-03-22T02:33:23;5.20;99.90
14119;DHT22;7138;49.246;9.100;2024-03-22T02:35:50;5.30;99.90
14119;DHT22;7138;49.246;9.100;2024-03-22T02:38:17;5.30;99.90
14119;DHT22;7138;49.246;9.100;2024-03-22T02:40:45;5.40;99.90
14119;DHT22;7138;49.246;9.100;2024-03-22T02:43:12;5.30;99.90
14119;DHT22;7138;49.246;9.100;2024-03-22T02:45:38;5.30;99.90
14119;DHT22;7138;49.246;9.100;2024-03-22T02:48:05;5.10;99.90
14119;DHT22;7138;49.246;9.100;2024-03-22T02:50:33;5.10;99.90
14119;DHT22;7138;49.246;9.100;2024-03-22T02:52:59;5.10;99.90
14119;DHT22;7138;49.246;9.100;2024-03-22T02:55:24;5.10;99.90
14119;DHT22;7138;49.246;9.100;2024-03-22T02:57:52;5.10;99.90
14119;DHT22;7138;49.246;9.100;2024-03-22T03:00:18;5.10;99.90
14119;DHT22;7138;49.246;9.100;2024-03-22T03:02:45;5.20;99.90
14119;DHT22;7138;49.246;9.100;2024-03-22T03:05:10;5.10;99.90
14119;DHT22;7138;49.246;9.100;2024-03-22T03:07:36;5.10;99.90
14119;DHT22;7138;49.246;9.100;2024-03-22T03:10:02;5.10;99.90
14119;DHT22;7138;49.246;9.100;2024-03-22T03:12:28;5.10;99.90
14119;DHT22;7138;49.246;9.100;2024-03-22T03:14:56;5.20;99.90
14119;DHT22;7138;49.246;9.100;2024-03-22T03:17:21;5.10;99.90
14119;DHT22;7138;49.246;9.100;2024-03-22T03:19:48;5.10;99.90
14119;DHT22;7138;49.246;9.100;2024-03-22T03:22:14;5.00;99.90
14119;DHT22;7138;49.246;9.100;2024-03-22T03:24:40;5.00;99.90
14119;DHT22;7138;49.246;9.100;2024-03-22T03:27:06;5.00;99.90
14119;DHT22;7138;49.246;9.100;2024-03-22T03:29:32;5.10;99.90
14119;DHT22;7138;49.246;9.100;2024-03-22T03:32:00;5.20;99.90
14119;DHT22;7138;49.246;9.100;2024-03-22T03:34:25;5.20;99.90
14119;DHT22;7138;49.246;9.100;2024-03-22T03:36:51;5.20;99.90
14119;DHT22;7138;49.246;9.100;2024-03-22T03:39:17;5.20;99.90
14119;DHT22;7138;49.246;9.100;2024-03-22T03:41:43;5.10;99.90
14119;DHT22;7138;49.246;9.100;2024-03-22T03:44:09;5.20;99.90
14119;DHT22;7138;49.246;9.100;2024-03-22T03:46:34;5.20;99.90
14119;DHT22;7138;49.246;9.100;2024-03-22T03:49:02;5.20;99.90
14119;DHT22;7138;49.246;9.100;2024-03-22T03:51:27;5.20;99.90
14119;DHT22;7138;49.246;9.100;2024-03-22T03:53:53;5.20;99.90
14119;DHT22;7138;49.246;9.100;2024-03-22T03:56:19;5.20;99.90
14119;DHT22;7138;49.246;9.100;2024-03-22T03:58:45;5.30;99.90
14119;DHT22;7138;49.246;9.100;2024-03-22T04:01:11;5.30;99.90
14119;DHT22;7138;49.246;9.100;2024-03-22T04:03:37;5.40;99.90
14119;DHT22;7138;49.246;9.100;2024-03-22T04:06:04;5.40;99.90
14119;DHT22;7138;49.246;9.100;2024-03-22T04:08:32;5.40;99.90
14119;DHT22;7138;49.246;9.100;2024-03-22T04:10:58;5.40;99.90
14119;DHT22;7138;49.246;9.100;2024-03-22T04:13:24;5.30;99.90
14119;DHT22;7138;49.246;9.100;2024-03-22T04:15:51;5.20;99.90
14119;DHT22;7138;49.246;9.100;2024-03-22T04:18:17;5.30;99.90
14119;DHT22;7138;49.246;9.100;2024-03-22T04:20:52;5.40;99.90
14119;DHT22;7138;49.246;9.100;2024-03-22T04:23:20;5.40;99.90
14119;DHT22;7138;49.246;9.100;2024-03-22T04:25:52;5.40;99.90
14119;DHT22;7138;49.246;9.100;2024-03-22T04:28:20;5.60;99.90
14119;DHT22;7138;49.246;9.100;2024-03-22T04:30:55;5.60;99.90
14119;DHT22;7138;49.246;9.100;2024-03-22T04:33:22;5.60;99.90
14119;DHT22;7138;49.246;9.100;2024-03-22T04:35:47;5.60;99.90
14119;DHT22;7138;49.246;9.100;2024-03-22T04:38:13;5.70;99.90
14119;DHT22;7138;49.246;9.100;2024-03-22T04:40:41;5.70;99.90
14119;DHT22;7138;49.246;9.100;2024-03-22T04:43:07;5.70;99.90
14119;DHT22;7138;49.246;9.100;2024-03-22T04:45:33;5.70;99.90
14119;DHT22;7138;49.246;9.100;2024-03-22T04:48:01;5.60;99.90
14119;DHT22;7138;49.246;9.100;2024-03-22T04:50:27;5.60;99.90
14119;DHT22;7138;49.246;9.100;2024-03-22T04:52:53;5.70;99.90
14119;DHT22;7138;49.246;9.100;2024-03-22T04:55:20;5.70;99.90
14119;DHT22;7138;49.246;9.100;2024-03-22T04:57:47;5.70;99.90
14119;DHT22;7138;49.246;9.100;2024-03-22T05:00:14;5.70;99.90
14119;DHT22;7138;49.246;9.100;2024-03-22T05:02:40;5.70;99.90
14119;DHT22;7138;49.246;9.100;2024-03-22T05:05:06;5.80;99.90
14119;DHT22;7138;49.246;9.100;2024-03-22T05:07:35;5.70;99.90
14119;DHT22;7138;49.246;9.100;2024-03-22T05:10:01;5.70;99.90
14119;DHT22;7138;49.246;9.100;2024-03-22T05:12:28;5.70;99.90
14119;DHT22;7138;49.246;9.100;2024-03-22T05:14:56;5.70;99.90
14119;DHT22;7138;49.246;9.100;2024-03-22T05:17:22;5.70;99.90
14119;DHT22;7138;49.246;9.100;2024-03-22T05:19:47;5.70;99.90
14119;DHT22;7138;49.246;9.100;2024-03-22T05:22:13;5.70;99.90
14119;DHT22;7138;49.246;9.100;2024-03-22T05:24:39;5.70;99.90
14119;DHT22;7138;49.246;9.100;2024-03-22T05:27:05;5.60;99.90
14119;DHT22;7138;49.246;9.100;2024-03-22T05:29:31;5.60;99.90
14119;DHT22;7138;49.246;9.100;2024-03-22T05:31:58;5.60;99.90
14119;DHT22;7138;49.246;9.100;2024-03-22T05:34:24;5.60;99.90
14119;DHT22;7138;49.246;9.100;2024-03-22T05:36:49;5.60;99.90
14119;DHT22;7138;49.246;9.100;2024-03-22T05:39:15;5.60;99.90
14119;DHT22;7138;49.246;9.100;2024-03-22T05:41:41;5.60;99.90
14119;DHT22;7138;49.246;9.100;2024-03-22T05:44:08;5.60;99.90
14119;DHT22;7138;49.246;9.100;2024-03-22T05:46:34;5.70;99.90
14119;DHT22;7138;49.246;9.100;2024-03-22T05:49:01;5.60;99.90
14119;DHT22;7138;49.246;9.100;2024-03-22T05:51:28;5.60;99.90
14119;DHT22;7138;49.246;9.100;2024-03-22T05:53:55;5.70;99.90
14119;DHT22;7138;49.246;9.100;2024-03-22T05:56:22;5.60;99.90
14119;DHT22;7138;49.246;9.100;2024-03-22T05:58:48;5.70;99.90
14119;DHT22;7138;49.246;9.100;2024-03-22T06:01:14;5.60;99.90
14119;DHT22;7138;49.246;9.100;2024-03-22T06:03:40;5.70;99.90
14119;DHT22;7138;49.246;9.100;2024-03-22T06:06:07;5.70;99.90
14119;DHT22;7138;49.246;9.100;2024-03-22T06:08:33;5.80;99.90
14119;DHT22;7138;49.246;9.100;2024-03-22T06:11:00;5.80;99.90
14119;DHT22;7138;49.246;9.100;2024-03-22T06:13:26;5.90;99.90
14119;DHT22;7138;49.246;9.100;2024-03-22T06:15:52;5.80;99.90
14119;DHT22;7138;49.246;9.100;2024-03-22T06:18:18;5.80;99.90
14119;DHT22;7138;49.246;9.100;2024-03-22T06:23:13;5.80;99.90
14119;DHT22;7138;49.246;9.100;2024-03-22T06:25:39;5.90;99.90
14119;DHT22;7138;49.246;9.100;2024-03-22T06:28:05;6.10;99.90
14119;DHT22;7138;49.246;9.100;2024-03-22T06:30:31;6.20;99.90
14119;DHT22;7138;49.246;9.100;2024-03-22T06:32:56;6.30;99.90
14119;DHT22;7138;49.246;9.100;2024-03-22T06:35:22;6.50;99.90
14119;DHT22;7138;49.246;9.100;2024-03-22T06:37:48;6.50;99.90
14119;DHT22;7138;49.246;9.100;2024-03-22T06:40:16;6.70;99.90
14119;DHT22;7138;49.246;9.100;2024-03-22T06:42:42;6.90;99.90
14119;DHT22;7138;49.246;9.100;2024-03-22T06:45:08;7.20;99.90
14119;DHT22;7138;49.246;9.100;2024-03-22T06:47:35;7.40;99.90
14119;DHT22;7138;49.246;9.100;2024-03-22T06:50:00;7.70;99.90
14119;DHT22;7138;49.246;9.100;2024-03-22T06:52:26;7.90;99.90
14119;DHT22;7138;49.246;9.100;2024-03-22T06:54:52;8.10;99.90
14119;DHT22;7138;49.246;9.100;2024-03-22T06:57:20;8.20;99.90
14119;DHT22;7138;49.246;9.100;2024-03-22T06:59:46;8.50;99.90
14119;DHT22;7138;49.246;9.100;2024-03-22T07:02:11;8.80;99.90
14119;DHT22;7138;49.246;9.100;2024-03-22T07:04:39;8.90;99.90
14119;DHT22;7138;49.246;9.100;2024-03-22T07:07:05;9.30;99.90
14119;DHT22;7138;49.246;9.100;2024-03-22T07:09:32;8.90;99.90
14119;DHT22;7138;49.246;9.100;2024-03-22T07:11:59;8.50;99.90
14119;DHT22;7138;49.246;9.100;2024-03-22T07:14:26;9.30;99.90
14119;DHT22;7138;49.246;9.100;2024-03-22T07:16:52;9.90;99.90
14119;DHT22;7138;49.246;9.100;2024-03-22T07:19:21;9.90;99.90
14119;DHT22;7138;49.246;9.100;2024-03-22T07:21:47;10.40;99.90
14119;DHT22;7138;49.246;9.100;2024-03-22T07:24:13;10.60;99.90
14119;DHT22;7138;49.246;9.100;2024-03-22T07:26:39;10.90;99.90
14119;DHT22;7138;49.246;9.100;2024-03-22T07:29:05;11.50;99.90
14119;DHT22;7138;49.246;9.100;2024-03-22T07:31:32;11.40;99.90
14119;DHT22;7138;49.246;9.100;2024-03-22T07:33:58;11.50;99.90
14119;DHT22;7138;49.246;9.100;2024-03-22T07:36:24;11.60;99.90
14119;DHT22;7138;49.246;9.100;2024-03-22T07:38:49;12.10;99.90
14119;DHT22;7138;49.246;9.100;2024-03-22T07:41:15;12.60;99.90
14119;DHT22;7138;49.246;9.100;2024-03-22T07:43:41;13.00;99.90
14119;DHT22;7138;49.246;9.100;2024-03-22T07:46:07;13.30;99.90
14119;DHT22;7138;49.246;9.100;2024-03-22T07:48:34;13.30;99.90
14119;DHT22;7138;49.246;9.100;2024-03-22T07:51:01;13.50;99.90
14119;DHT22;7138;49.246;9.100;2024-03-22T07:53:27;13.20;99.90
14119;DHT22;7138;49.246;9.100;2024-03-22T07:55:53;12.90;99.90
14119;DHT22;7138;49.246;9.100;2024-03-22T07:58:20;12.40;99.90
14119;DHT22;7138;49.246;9.100;2024-03-22T08:00:45;12.40;99.90
14119;DHT22;7138;49.246;9.100;2024-03-22T08:03:14;12.40;99.90
14119;DHT22;7138;49.246;9.100;2024-03-22T08:05:43;12.40;99.90
14119;DHT22;7138;49.246;9.100;2024-03-22T08:08:09;13.00;99.90
14119;DHT22;7138;49.246;9.100;2024-03-22T08:10:34;13.10;99.90
14119;DHT22;7138;49.246;9.100;2024-03-22T08:13:00;13.80;99.90
14119;DHT22;7138;49.246;9.100;2024-03-22T08:15:26;14.50;99.90
14119;DHT22;7138;49.246;9.100;2024-03-22T08:17:53;15.20;99.90
14119;DHT22;7138;49.246;9.100;2024-03-22T08:20:18;15.40;99.90
14119;DHT22;7138;49.246;9.100;2024-03-22T08:22:46;15.00;99.90
14119;DHT22;7138;49.246;9.100;2024-03-22T08:25:11;15.30;99.90
14119;DHT22;7138;49.246;9.100;2024-03-22T08:27:37;15.30;99.90
14119;DHT22;7138;49.246;9.100;2024-03-22T08:30:04;15.50;99.90
14119;DHT22;7138;49.246;9.100;2024-03-22T08:32:31;15.80;99.90
14119;DHT22;7138;49.246;9.100;2024-03-22T08:34:57;15.80;99.90
14119;DHT22;7138;49.246;9.100;2024-03-22T08:37:23;16.20;99.90
14119;DHT22;7138;49.246;9.100;2024-03-22T08:39:50;15.90;99.90
14119;DHT22;7138;49.246;9.100;2024-03-22T08:42:16;16.00;99.90
14119;DHT22;7138;49.246;9.100;2024-03-22T08:44:42;16.20;99.90
14119;DHT22;7138;49.246;9.100;2024-03-22T08:47:08;16.30;99.90
14119;DHT22;7138;49.246;9.100;2024-03-22T08:49:34;16.10;99.90
14119;DHT22;7138;49.246;9.100;2024-03-22T08:52:01;15.60;99.90
14119;DHT22;7138;49.246;9.100;2024-03-22T08:54:27;15.50;99.90
14119;DHT22;7138;49.246;9.100;2024-03-22T08:56:54;15.20;99.90
14119;DHT22;7138;49.246;9.100;2024-03-22T08:59:20;15.40;99.90
14119;DHT22;7138;49.246;9.100;2024-03-22T09:01:46;15.90;99.90
14119;DHT22;7138;49.246;9.100;2024-03-22T09:04:13;15.70;99.90
14119;DHT22;7138;49.246;9.100;2024-03-22T09:06:40;16.20;99.90
14119;DHT22;7138;49.246;9.100;2024-03-22T09:09:06;16.20;99.90
14119;DHT22;7138;49.246;9.100;2024-03-22T09:11:33;16.20;99.90
14119;DHT22;7138;49.246;9.100;2024-03-22T09:14:00;16.00;99.90
14119;DHT22;7138;49.246;9.100;2024-03-22T09:16:26;16.00;99.90
14119;DHT22;7138;49.246;9.100;2024-03-22T09:18:52;16.10;99.90
14119;DHT22;7138;49.246;9.100;2024-03-22T09:21:19;16.00;99.90
14119;DHT22;7138;49.246;9.100;2024-03-22T09:23:45;16.00;99.90
14119;DHT22;7138;49.246;9.100;2024-03-22T09:26:10;16.10;99.90
14119;DHT22;7138;49.246;9.100;2024-03-22T09:28:36;16.30;99.90
14119;DHT22;7138;49.246;9.100;2024-03-22T09:31:07;15.90;99.90
14119;DHT22;7138;49.246;9.100;2024-03-22T09:33:33;15.70;99.90
14119;DHT22;7138;49.246;9.100;2024-03-22T09:35:59;15.50;99.90
14119;DHT22;7138;49.246;9.100;2024-03-22T09:38:24;15.70;99.90
14119;DHT22;7138;49.246;9.100;2024-03-22T09:40:50;15.70;99.90
14119;DHT22;7138;49.246;9.100;2024-03-22T09:43:20;15.60;99.90
14119;DHT22;7138;49.246;9.100;2024-03-22T09:45:47;15.90;99.90
14119;DHT22;7138;49.246;9.100;2024-03-22T09:48:17;15.80;99.90
14119;DHT22;7138;49.246;9.100;2024-03-22T09:50:45;16.00;99.90
14119;DHT22;7138;49.246;9.100;2024-03-22T09:53:13;16.00;99.90
14119;DHT22;7138;49.246;9.100;2024-03-22T09:55:44;15.90;99.90
14119;DHT22;7138;49.246;9.100;2024-03-22T09:58:10;15.90;99.90
14119;DHT22;7138;49.246;9.100;2024-03-22T10:00:36;16.00;99.90
14119;DHT22;7138;49.246;9.100;2024-03-22T10:03:04;16.00;99.90
14119;DHT22;7138;49.246;9.100;2024-03-22T10:05:31;15.90;99.90
14119;DHT22;7138;49.246;9.100;2024-03-22T10:07:57;16.10;99.90
14119;DHT22;7138;49.246;9.100;2024-03-22T10:10:23;16.20;99.90
14119;DHT22;7138;49.246;9.100;2024-03-22T10:12:49;16.50;99.90
14119;DHT22;7138;49.246;9.100;2024-03-22T10:15:18;16.90;99.90
14119;DHT22;7138;49.246;9.100;2024-03-22T10:17:45;16.80;99.90
14119;DHT22;7138;49.246;9.100;2024-03-22T10:20:13;16.40;99.90
14119;DHT22;7138;49.246;9.100;2024-03-22T10:22:43;16.60;99.90
14119;DHT22;7138;49.246;9.100;2024-03-22T10:25:09;17.10;99.90
14119;DHT22;7138;49.246;9.100;2024-03-22T10:27:38;17.30;99.90
14119;DHT22;7138;49.246;9.100;2024-03-22T10:30:08;17.80;99.90
14119;DHT22;7138;49.246;9.100;2024-03-22T10:32:36;17.90;99.90
14119;DHT22;7138;49.246;9.100;2024-03-22T10:35:02;17.80;99.90
14119;DHT22;7138;49.246;9.100;2024-03-22T10:37:32;17.80;99.90
14119;DHT22;7138;49.246;9.100;2024-03-22T10:40:01;17.30;99.90
14119;DHT22;7138;49.246;9.100;2024-03-22T10:42:33;17.20;99.90
14119;DHT22;7138;49.246;9.100;2024-03-22T10:44:59;17.20;99.90
14119;DHT22;7138;49.246;9.100;2024-03-22T10:47:27;17.10;99.90
14119;DHT22;7138;49.246;9.100;2024-03-22T10:50:01;17.00;99.90
14119;DHT22;7138;49.246;9.100;2024-03-22T10:52:33;17.10;99.90
14119;DHT22;7138;49.246;9.100;2024-03-22T10:55:04;17.20;99.90
14119;DHT22;7138;49.246;9.100;2024-03-22T10:57:34;17.10;99.90
14119;DHT22;7138;49.246;9.100;2024-03-22T11:00:07;17.30;99.90
14119;DHT22;7138;49.246;9.100;2024-03-22T11:02:37;17.10;99.90
14119;DHT22;7138;49.246;9.100;2024-03-22T11:05:03;17.30;99.90
14119;DHT22;7138;49.246;9.100;2024-03-22T11:07:30;17.20;99.90
14119;DHT22;7138;49.246;9.100;2024-03-22T11:09:56;17.00;99.90
14119;DHT22;7138;49.246;9.100;2024-03-22T11:12:25;16.80;99.90
14119;DHT22;7138;49.246;9.100;2024-03-22T11:14:52;17.00;99.90
14119;DHT22;7138;49.246;9.100;2024-03-22T11:17:18;17.10;99.90
14119;DHT22;7138;49.246;9.100;2024-03-22T11:19:44;17.10;99.90
14119;DHT22;7138;49.246;9.100;2024-03-22T11:22:10;17.10;99.90
14119;DHT22;7138;49.246;9.100;2024-03-22T11:24:37;17.30;99.90
14119;DHT22;7138;49.246;9.100;2024-03-22T11:27:03;17.50;99.90
14119;DHT22;7138;49.246;9.100;2024-03-22T11:29:30;17.30;99.90
14119;DHT22;7138;49.246;9.100;2024-03-22T11:31:56;17.40;99.90
14119;DHT22;7138;49.246;9.100;2024-03-22T11:34:22;17.00;99.90
14119;DHT22;7138;49.246;9.100;2024-03-22T11:36:48;16.90;99.90
14119;DHT22;7138;49.246;9.100;2024-03-22T11:39:16;16.70;99.90
14119;DHT22;7138;49.246;9.100;2024-03-22T11:41:43;16.70;99.90
14119;DHT22;7138;49.246;9.100;2024-03-22T11:44:09;16.60;99.90
14119;DHT22;7138;49.246;9.100;2024-03-22T11:46:37;16.70;99.90
14119;DHT22;7138;49.246;9.100;2024-03-22T11:49:03;16.70;99.90
14119;DHT22;7138;49.246;9.100;2024-03-22T11:51:30;16.60;99.90
14119;DHT22;7138;49.246;9.100;2024-03-22T11:53:56;16.60;99.90
14119;DHT22;7138;49.246;9.100;2024-03-22T11:56:24;16.60;99.90
14119;DHT22;7138;49.246;9.100;2024-03-22T11:58:58;16.60;99.90
14119;DHT22;7138;49.246;9.100;2024-03-22T12:01:24;16.70;99.90
14119;DHT22;7138;49.246;9.100;2024-03-22T12:03:52;16.50;99.90
14119;DHT22;7138;49.246;9.100;2024-03-22T12:06:19;16.70;99.90
14119;DHT22;7138;49.246;9.100;2024-03-22T12:08:45;16.80;99.90
14119;DHT22;7138;49.246;9.100;2024-03-22T12:11:11;16.90;99.90
14119;DHT22;7138;49.246;9.100;2024-03-22T12:13:38;16.70;99.90
14119;DHT22;7138;49.246;9.100;2024-03-22T12:16:05;16.60;99.90
14119;DHT22;7138;49.246;9.100;2024-03-22T12:18:32;16.50;99.90
14119;DHT22;7138;49.246;9.100;2024-03-22T12:21:00;16.70;99.90
14119;DHT22;7138;49.246;9.100;2024-03-22T12:23:26;16.70;99.90
14119;DHT22;7138;49.246;9.100;2024-03-22T12:25:52;16.90;99.90
14119;DHT22;7138;49.246;9.100;2024-03-22T12:28:18;16.90;99.90
14119;DHT22;7138;49.246;9.100;2024-03-22T12:30:44;16.90;99.90
14119;DHT22;7138;49.246;9.100;2024-03-22T12:33:10;16.70;99.90
14119;DHT22;7138;49.246;9.100;2024-03-22T12:35:36;16.80;99.90
14119;DHT22;7138;49.246;9.100;2024-03-22T12:38:03;16.90;99.90
14119;DHT22;7138;49.246;9.100;2024-03-22T12:40:29;16.90;99.90
14119;DHT22;7138;49.246;9.100;2024-03-22T12:42:55;17.10;99.90
14119;DHT22;7138;49.246;9.100;2024-03-22T12:45:21;17.30;99.90
14119;DHT22;7138;49.246;9.100;2024-03-22T12:47:47;17.00;99.90
14119;DHT22;7138;49.246;9.100;2024-03-22T12:50:13;17.00;99.90
14119;DHT22;7138;49.246;9.100;2024-03-22T12:52:39;16.90;99.90
14119;DHT22;7138;49.246;9.100;2024-03-22T12:55:07;17.00;99.90
14119;DHT22;7138;49.246;9.100;2024-03-22T12:57:33;16.90;99.90
14119;DHT22;7138;49.246;9.100;2024-03-22T12:59:59;16.70;99.90
14119;DHT22;7138;49.246;9.100;2024-03-22T13:02:24;16.80;99.90
14119;DHT22;7138;49.246;9.100;2024-03-22T13:04:53;17.00;99.90
14119;DHT22;7138;49.246;9.100;2024-03-22T13:07:19;17.00;99.90
14119;DHT22;7138;49.246;9.100;2024-03-22T13:09:45;16.90;99.90
14119;DHT22;7138;49.246;9.100;2024-03-22T13:12:12;16.90;99.90
14119;DHT22;7138;49.246;9.100;2024-03-22T13:14:38;16.90;99.90
14119;DHT22;7138;49.246;9.100;2024-03-22T13:17:04;17.00;99.90
14119;DHT22;7138;49.246;9.100;2024-03-22T13:19:30;16.70;99.90
14119;DHT22;7138;49.246;9.100;2024-03-22T13:21:55;16.70;99.90
14119;DHT22;7138;49.246;9.100;2024-03-22T13:24:21;16.70;99.90
14119;DHT22;7138;49.246;9.100;2024-03-22T13:26:47;16.70;99.90
14119;DHT22;7138;49.246;9.100;2024-03-22T13:29:14;16.70;99.90
14119;DHT22;7138;49.246;9.100;2024-03-22T13:31:40;16.50;99.90
14119;DHT22;7138;49.246;9.100;2024-03-22T13:34:06;16.60;99.90
14119;DHT22;7138;49.246;9.100;2024-03-22T13:36:32;16.60;99.90
14119;DHT22;7138;49.246;9.100;2024-03-22T13:38:59;16.70;99.90
14119;DHT22;7138;49.246;9.100;2024-03-22T13:41:25;16.60;99.90
14119;DHT22;7138;49.246;9.100;2024-03-22T13:43:50;16.70;99.90
14119;DHT22;7138;49.246;9.100;2024-03-22T13:46:18;16.50;99.90
14119;DHT22;7138;49.246;9.100;2024-03-22T13:48:44;16.40;99.90
14119;DHT22;7138;49.246;9.100;2024-03-22T13:51:10;16.40;99.90
14119;DHT22;7138;49.246;9.100;2024-03-22T13:53:36;16.40;99.90
14119;DHT22;7138;49.246;9.100;2024-03-22T13:56:03;16.50;99.90
14119;DHT22;7138;49.246;9.100;2024-03-22T13:58:29;16.40;99.90
14119;DHT22;7138;49.246;9.100;2024-03-22T14:00:55;16.40;99.90
14119;DHT22;7138;49.246;9.100;2024-03-22T14:03:22;16.50;99.90
14119;DHT22;7138;49.246;9.100;2024-03-22T14:05:47;16.60;99.90
14119;DHT22;7138;49.246;9.100;2024-03-22T14:08:14;16.80;99.90
14119;DHT22;7138;49.246;9.100;2024-03-22T14:10:39;16.90;99.90
14119;DHT22;7138;49.246;9.100;2024-03-22T14:13:05;16.80;99.90
14119;DHT22;7138;49.246;9.100;2024-03-22T14:15:33;16.80;99.90
14119;DHT22;7138;49.246;9.100;2024-03-22T14:18:00;16.70;99.90
14119;DHT22;7138;49.246;9.100;2024-03-22T14:20:27;16.60;99.90
14119;DHT22;7138;49.246;9.100;2024-03-22T14:22:54;16.60;99.90
14119;DHT22;7138;49.246;9.100;2024-03-22T14:25:20;16.50;99.90
14119;DHT22;7138;49.246;9.100;2024-03-22T14:27:46;16.40;99.90
14119;DHT22;7138;49.246;9.100;2024-03-22T14:30:12;16.40;99.90
14119;DHT22;7138;49.246;9.100;2024-03-22T14:32:40;16.40;99.90
14119;DHT22;7138;49.246;9.100;2024-03-22T14:35:07;16.40;99.90
14119;DHT22;7138;49.246;9.100;2024-03-22T14:37:35;16.30;99.90
14119;DHT22;7138;49.246;9.100;2024-03-22T14:40:01;16.20;99.90
14119;DHT22;7138;49.246;9.100;2024-03-22T14:42:30;16.20;99.90
14119;DHT22;7138;49.246;9.100;2024-03-22T14:44:56;16.20;99.90
14119;DHT22;7138;49.246;9.100;2024-03-22T14:47:22;16.10;99.90
14119;DHT22;7138;49.246;9.100;2024-03-22T14:49:49;16.10;99.90
14119;DHT22;7138;49.246;9.100;2024-03-22T14:52:15;16.10;99.90
14119;DHT22;7138;49.246;9.100;2024-03-22T14:54:42;16.10;99.90
14119;DHT22;7138;49.246;9.100;2024-03-22T14:57:07;16.10;99.90
14119;DHT22;7138;49.246;9.100;2024-03-22T14:59:34;16.10;99.90
14119;DHT22;7138;49.246;9.100;2024-03-22T15:02:00;16.10;99.90
14119;DHT22;7138;49.246;9.100;2024-03-22T15:04:26;16.20;99.90
14119;DHT22;7138;49.246;9.100;2024-03-22T15:06:52;16.20;99.90
14119;DHT22;7138;49.246;9.100;2024-03-22T15:09:19;16.20;99.90
14119;DHT22;7138;49.246;9.100;2024-03-22T15:11:46;16.20;99.90
14119;DHT22;7138;49.246;9.100;2024-03-22T15:14:12;16.10;99.90
14119;DHT22;7138;49.246;9.100;2024-03-22T15:16:39;16.10;99.90
14119;DHT22;7138;49.246;9.100;2024-03-22T15:19:05;16.00;99.90
14119;DHT22;7138;49.246;9.100;2024-03-22T15:21:31;16.00;99.90
14119;DHT22;7138;49.246;9.100;2024-03-22T15:23:57;16.00;99.90
14119;DHT22;7138;49.246;9.100;2024-03-22T15:26:22;16.00;99.90
14119;DHT22;7138;49.246;9.100;2024-03-22T15:28:50;16.00;99.90
14119;DHT22;7138;49.246;9.100;2024-03-22T15:31:15;16.00;99.90
14119;DHT22;7138;49.246;9.100;2024-03-22T15:33:41;16.00;99.90
14119;DHT22;7138;49.246;9.100;2024-03-22T15:36:07;16.00;99.90
14119;DHT22;7138;49.246;9.100;2024-03-22T15:38:33;16.00;99.90
14119;DHT22;7138;49.246;9.100;2024-03-22T15:40:59;16.00;99.90
14119;DHT22;7138;49.246;9.100;2024-03-22T15:43:25;16.10;99.90
14119;DHT22;7138;49.246;9.100;2024-03-22T15:45:52;16.00;99.90
14119;DHT22;7138;49.246;9.100;2024-03-22T15:48:18;16.00;99.90
14119;DHT22;7138;49.246;9.100;2024-03-22T15:50:49;15.90;99.90